Time;durP1;ratioP1;P1;durP2;ratioP2;P2;SDS_P1;SDS_P2;PMS_P1;PMS_P2;Temp;Humidity;BMP_temperature;BMP_pressure;BME280_temperature;BME280_humidity;BME280_pressure;Samples;Min_cycle;Max_cycle;Signal;HPM_P1;HPM_P2
2024/02/16 00:00:16;;;;;;;;;;;;;;;-2.49;100.00;98080.65;110401;1238;59745;-61
2024/02/16 00:03:05;;;;;;;;;;;;;;;-2.51;100.00;98084.40;110411;1243;59801;-60
2024/02/16 00:05:34;;;;;;;;;;;;;;;-2.54;100.00;98080.00;110433;1241;71724;-60
2024/02/16 00:08:03;;;;;;;;;;;;;;;-2.58;100.00;98078.84;110447;1241;68590;-61
2024/02/16 00:10:32;;;;;;;;;;;;;;;-2.63;100.00;98075.46;110423;1241;69713;-60
2024/02/16 00:13:01;;;;;;;;;;;;;;;-2.65;100.00;98073.45;110373;1241;59679;-60
2024/02/16 00:15:29;;;;;;;;;;;;;;;-2.64;100.00;98071.05;110408;1241;59688;-61
2024/02/16 00:17:58;;;;;;;;;;;;;;;-2.64;100.00;98073.27;110449;1238;71350;-60
2024/02/16 00:20:28;;;;;;;;;;;;;;;-2.65;100.00;98072.58;110478;1242;68762;-60
2024/02/16 00:22:57;;;;;;;;;;;;;;;-2.66;100.00;98073.12;110481;1240;69846;-61
2024/02/16 00:25:26;;;;;;;;;;;;;;;-2.65;100.00;98074.30;110362;1242;59668;-61
2024/02/16 00:27:55;;;;;;;;;;;;;;;-2.65;100.00;98074.30;110432;1241;59655;-61
2024/02/16 00:30:27;;;;;;;;;;;;;;;-2.65;100.00;98076.67;110385;1238;71621;-60
2024/02/16 00:32:56;;;;;;;;;;;;;;;-2.62;100.00;98076.32;110392;1238;69234;-61
2024/02/16 00:35:24;;;;;;;;;;;;;;;-2.63;100.00;98073.94;110371;1242;69676;-60
2024/02/16 00:37:53;;;;;;;;;;;;;;;-2.63;100.00;98072.40;110446;1241;59704;-61
2024/02/16 00:40:22;;;;;;;;;;;;;;;-2.61;100.00;98069.99;110542;1241;59658;-60
2024/02/16 00:42:53;;;;;;;;;;;;;;;-2.66;100.00;98070.04;110481;1241;71196;-60
2024/02/16 00:45:22;;;;;;;;;;;;;;;-2.69;100.00;98070.24;110452;1241;70136;-60
2024/02/16 00:47:50;;;;;;;;;;;;;;;-2.72;100.00;98070.61;110509;1238;69269;-60
2024/02/16 00:50:20;;;;;;;;;;;;;;;-2.76;100.00;98070.14;110520;1242;59749;-60
2024/02/16 00:52:48;;;;;;;;;;;;;;;-2.78;100.00;98066.92;110543;1240;59682;-61
2024/02/16 00:55:17;;;;;;;;;;;;;;;-2.82;100.00;98062.52;110443;1238;71167;-61
2024/02/16 00:57:46;;;;;;;;;;;;;;;-2.85;100.00;98058.28;110552;1242;69220;-61
2024/02/16 01:00:15;;;;;;;;;;;;;;;-2.86;100.00;98059.84;110492;1240;69749;-61
2024/02/16 01:02:44;;;;;;;;;;;;;;;-2.87;100.00;98057.27;110375;1238;59727;-61
2024/02/16 01:05:13;;;;;;;;;;;;;;;-2.88;100.00;98056.27;110404;1241;59752;-61
2024/02/16 01:07:42;;;;;;;;;;;;;;;-2.91;100.00;98057.48;110407;1238;71047;-61
2024/02/16 01:10:12;;;;;;;;;;;;;;;-2.93;100.00;98056.14;110382;1238;69034;-60
2024/02/16 01:12:41;;;;;;;;;;;;;;;-2.94;100.00;98058.88;110356;1240;69506;-61
2024/02/16 01:15:11;;;;;;;;;;;;;;;-2.96;100.00;98059.23;110280;1242;59818;-61
2024/02/16 01:17:40;;;;;;;;;;;;;;;-2.99;100.00;98058.25;110490;1242;59688;-61
2024/02/16 01:20:12;;;;;;;;;;;;;;;-3.01;100.00;98057.40;110416;1242;71334;-61
2024/02/16 01:22:41;;;;;;;;;;;;;;;-3.04;100.00;98057.27;110307;1241;70054;-60
2024/02/16 01:25:10;;;;;;;;;;;;;;;-3.05;100.00;98058.29;110387;1246;69320;-61
2024/02/16 01:27:40;;;;;;;;;;;;;;;-3.09;100.00;98056.79;110394;1240;59661;-61
2024/02/16 01:30:10;;;;;;;;;;;;;;;-3.10;100.00;98051.67;110410;1240;59676;-61
2024/02/16 01:32:39;;;;;;;;;;;;;;;-3.10;100.00;98054.58;110388;1240;72154;-61
2024/02/16 01:35:08;;;;;;;;;;;;;;;-3.12;100.00;98049.30;110390;1241;69049;-61
2024/02/16 01:37:36;;;;;;;;;;;;;;;-3.12;100.00;98049.98;110368;1238;69685;-61
2024/02/16 01:40:06;;;;;;;;;;;;;;;-3.10;100.00;98048.61;110397;1241;59666;-61
2024/02/16 01:42:34;;;;;;;;;;;;;;;-3.11;100.00;98046.40;110363;1238;59779;-61
2024/02/16 01:45:03;;;;;;;;;;;;;;;-3.13;100.00;98046.94;110432;1238;72151;-61
2024/02/16 01:47:32;;;;;;;;;;;;;;;-3.16;100.00;98046.27;110372;1239;67320;-61
2024/02/16 01:50:02;;;;;;;;;;;;;;;-3.20;100.00;98043.23;110355;1238;69215;-61
2024/02/16 01:52:31;;;;;;;;;;;;;;;-3.23;100.00;98042.91;110428;1238;59726;-61
2024/02/16 01:55:02;;;;;;;;;;;;;;;-3.23;100.00;98040.71;110464;1238;59922;-61
2024/02/16 01:57:31;;;;;;;;;;;;;;;-3.24;100.00;98042.59;110275;1242;71991;-59
2024/02/16 02:00:00;;;;;;;;;;;;;;;-3.23;100.00;98042.75;110258;1238;68028;-61
2024/02/16 02:02:32;;;;;;;;;;;;;;;-3.23;100.00;98040.70;110428;1240;69695;-60
2024/02/16 02:05:00;;;;;;;;;;;;;;;-3.22;100.00;98036.79;110469;1241;59742;-60
2024/02/16 02:07:29;;;;;;;;;;;;;;;-3.23;100.00;98036.45;110464;1240;59674;-60
2024/02/16 02:09:58;;;;;;;;;;;;;;;-3.25;100.00;98033.72;110572;1243;71900;-60
2024/02/16 02:12:27;;;;;;;;;;;;;;;-3.28;100.00;98031.88;110581;1238;69713;-61
2024/02/16 02:14:56;;;;;;;;;;;;;;;-3.30;100.00;98029.16;110352;1240;69860;-61
2024/02/16 02:17:24;;;;;;;;;;;;;;;-3.28;100.00;98031.88;110407;1238;59750;-61
2024/02/16 02:19:53;;;;;;;;;;;;;;;-3.29;100.00;98030.86;110388;1241;59685;-61
2024/02/16 02:22:22;;;;;;;;;;;;;;;-3.32;100.00;98032.26;110423;1238;72099;-61
2024/02/16 02:24:51;;;;;;;;;;;;;;;-3.34;100.00;98036.86;110480;1238;69051;-61
2024/02/16 02:27:20;;;;;;;;;;;;;;;-3.36;100.00;98035.52;110482;1238;69226;-61
2024/02/16 02:29:49;;;;;;;;;;;;;;;-3.38;100.00;98035.70;110513;1240;59633;-61
2024/02/16 02:32:19;;;;;;;;;;;;;;;-3.40;100.00;98039.98;110400;1238;59695;-61
2024/02/16 02:34:48;;;;;;;;;;;;;;;-3.41;100.00;98037.42;110454;1242;71772;-61
2024/02/16 02:37:16;;;;;;;;;;;;;;;-3.44;100.00;98035.41;110465;1241;69690;-61
2024/02/16 02:39:45;;;;;;;;;;;;;;;-3.48;100.00;98039.18;110453;1238;69195;-61
2024/02/16 02:42:14;;;;;;;;;;;;;;;-3.50;100.00;98044.30;110511;1240;59782;-61
2024/02/16 02:44:49;;;;;;;;;;;;;;;-3.48;100.00;98046.00;110515;1238;59719;-61
2024/02/16 02:47:18;;;;;;;;;;;;;;;-3.50;100.00;98044.99;110435;1240;71961;-61
2024/02/16 02:49:47;;;;;;;;;;;;;;;-3.49;100.00;98047.89;110417;1238;68953;-61
2024/02/16 02:52:17;;;;;;;;;;;;;;;-3.46;100.00;98042.59;110437;1241;69066;-61
2024/02/16 02:54:45;;;;;;;;;;;;;;;-3.47;100.00;98047.19;110295;1238;59786;-61
2024/02/16 02:57:14;;;;;;;;;;;;;;;-3.47;100.00;98048.72;110493;1240;59660;-61
2024/02/16 02:59:45;;;;;;;;;;;;;;;-3.48;100.00;98053.15;110411;1238;71812;-61
2024/02/16 03:02:14;;;;;;;;;;;;;;;-3.49;100.00;98054.70;110424;1242;69953;-61
2024/02/16 03:04:43;;;;;;;;;;;;;;;-3.53;100.00;98053.52;110400;1238;69054;-61
2024/02/16 03:07:11;;;;;;;;;;;;;;;-3.56;100.00;98053.72;110329;1238;59728;-61
2024/02/16 03:09:41;;;;;;;;;;;;;;;-3.60;100.00;98053.08;110402;1238;59699;-61
2024/02/16 03:12:10;;;;;;;;;;;;;;;-3.63;100.00;98053.42;110405;1241;72018;-61
2024/02/16 03:14:39;;;;;;;;;;;;;;;-3.64;100.00;98051.40;110400;1241;69208;-61
2024/02/16 03:17:08;;;;;;;;;;;;;;;-3.62;100.00;98051.53;110491;1238;69180;-61
2024/02/16 03:19:38;;;;;;;;;;;;;;;-3.62;100.00;98052.55;110444;1241;59739;-61
2024/02/16 03:22:07;;;;;;;;;;;;;;;-3.62;100.00;98052.56;110392;1238;59604;-61
2024/02/16 03:24:35;;;;;;;;;;;;;;;-3.63;100.00;98051.04;110418;1241;71782;-61
2024/02/16 03:27:05;;;;;;;;;;;;;;;-3.65;100.00;98054.12;110430;1238;70227;-61
2024/02/16 03:29:33;;;;;;;;;;;;;;;-3.69;100.00;98052.44;110426;1238;69694;-61
2024/02/16 03:32:03;;;;;;;;;;;;;;;-3.71;100.00;98055.69;110387;1241;59750;-61
2024/02/16 03:34:32;;;;;;;;;;;;;;;-3.76;100.00;98057.25;110471;1241;59714;-61
2024/02/16 03:37:01;;;;;;;;;;;;;;;-3.81;100.00;98059.66;110361;1241;71338;-61
2024/02/16 03:39:30;;;;;;;;;;;;;;;-3.83;100.00;98059.85;110388;1240;69805;-61
2024/02/16 03:41:59;;;;;;;;;;;;;;;-3.86;100.00;98058.33;110371;1242;69472;-61
2024/02/16 03:44:28;;;;;;;;;;;;;;;-3.89;100.00;98060.39;110443;1238;59727;-61
2024/02/16 03:46:57;;;;;;;;;;;;;;;-3.94;100.00;98060.23;110406;1240;59624;-61
2024/02/16 03:49:29;;;;;;;;;;;;;;;-3.97;100.00;98057.88;110481;1238;72183;-61
2024/02/16 03:51:58;;;;;;;;;;;;;;;-3.98;100.00;98058.21;110394;1241;68732;-61
2024/02/16 03:54:26;;;;;;;;;;;;;;;-3.99;100.00;98057.87;110407;1238;69067;-61
2024/02/16 03:56:57;;;;;;;;;;;;;;;-3.98;100.00;98060.42;110397;1238;60014;-61
2024/02/16 03:59:27;;;;;;;;;;;;;;;-3.99;100.00;98057.88;110369;1240;59692;-61
2024/02/16 04:01:56;;;;;;;;;;;;;;;-4.01;100.00;98061.13;110380;1241;71797;-61
2024/02/16 04:04:26;;;;;;;;;;;;;;;-4.02;100.00;98063.84;110397;1238;70124;-61
2024/02/16 04:06:55;;;;;;;;;;;;;;;-4.04;100.00;98064.55;110350;1242;69346;-61
2024/02/16 04:09:24;;;;;;;;;;;;;;;-4.05;100.00;98067.45;110385;1244;59751;-61
2024/02/16 04:11:53;;;;;;;;;;;;;;;-4.06;100.00;98066.43;110378;1240;59669;-61
2024/02/16 04:14:21;;;;;;;;;;;;;;;-4.04;100.00;98069.83;110398;1238;71340;-60
2024/02/16 04:16:50;;;;;;;;;;;;;;;-4.05;100.00;98072.04;110396;1242;68995;-62
2024/02/16 04:19:19;;;;;;;;;;;;;;;-4.08;100.00;98073.91;110499;1241;69027;-61
2024/02/16 04:21:48;;;;;;;;;;;;;;;-4.10;100.00;98074.11;110479;1238;59699;-60
2024/02/16 04:24:16;;;;;;;;;;;;;;;-4.12;100.00;98073.77;110655;1238;59690;-60
2024/02/16 04:26:45;;;;;;;;;;;;;;;-4.12;100.00;98074.27;110480;1240;71340;-60
2024/02/16 04:29:14;;;;;;;;;;;;;;;-4.13;100.00;98070.54;110528;1238;69197;-60
2024/02/16 04:31:45;;;;;;;;;;;;;;;-4.14;100.00;98070.38;110600;1241;69234;-60
2024/02/16 04:34:14;;;;;;;;;;;;;;;-4.15;100.00;98072.59;110350;1238;59729;-60
2024/02/16 04:36:43;;;;;;;;;;;;;;;-4.16;100.00;98071.91;110412;1242;59683;-60
2024/02/16 04:39:14;;;;;;;;;;;;;;;-4.17;100.00;98073.09;110424;1241;71726;-60
2024/02/16 04:41:43;;;;;;;;;;;;;;;-4.18;100.00;98075.83;110373;1238;69019;-59
2024/02/16 04:44:12;;;;;;;;;;;;;;;-4.17;100.00;98074.13;110420;1240;69045;-60
2024/02/16 04:46:41;;;;;;;;;;;;;;;-4.14;100.00;98075.48;110357;1240;60021;-60
2024/02/16 04:49:11;;;;;;;;;;;;;;;-4.13;100.00;98077.16;110416;1241;59636;-60
2024/02/16 04:51:40;;;;;;;;;;;;;;;-4.13;100.00;98074.79;110406;1241;71683;-60
2024/02/16 04:54:09;;;;;;;;;;;;;;;-4.15;100.00;98078.73;110381;1241;69823;-60
2024/02/16 04:56:39;;;;;;;;;;;;;;;-4.17;100.00;98076.67;110378;1241;69880;-60
2024/02/16 04:59:08;;;;;;;;;;;;;;;-4.17;100.00;98078.55;110390;1241;59733;-60
2024/02/16 05:01:37;;;;;;;;;;;;;;;-4.19;100.00;98078.22;110413;1238;59672;-60
2024/02/16 05:04:06;;;;;;;;;;;;;;;-4.20;100.00;98078.05;110550;1238;71178;-62
2024/02/16 05:06:39;;;;;;;;;;;;;;;-4.21;100.00;98080.42;110530;1240;69630;-59
2024/02/16 05:09:08;;;;;;;;;;;;;;;-4.19;100.00;98083.69;110394;1240;69693;-59
2024/02/16 05:11:37;;;;;;;;;;;;;;;-4.21;100.00;98078.91;110424;1238;59733;-60
2024/02/16 05:14:06;;;;;;;;;;;;;;;-4.21;100.00;98082.30;110400;1241;59631;-60
2024/02/16 05:16:34;;;;;;;;;;;;;;;-4.22;100.00;98085.54;110422;1238;70428;-60
2024/02/16 05:19:03;;;;;;;;;;;;;;;-4.22;100.00;98085.70;110430;1241;69557;-60
2024/02/16 05:21:32;;;;;;;;;;;;;;;-4.21;100.00;98086.56;110489;1241;69245;-61
2024/02/16 05:24:01;;;;;;;;;;;;;;;-4.19;100.00;98087.59;110439;1242;59725;-59
2024/02/16 05:26:30;;;;;;;;;;;;;;;-4.18;100.00;98094.39;110452;1242;60071;-60
2024/02/16 05:28:59;;;;;;;;;;;;;;;-4.17;100.00;98095.06;110466;1238;71409;-60
2024/02/16 05:31:28;;;;;;;;;;;;;;;-4.17;100.00;98098.30;110490;1240;69156;-60
2024/02/16 05:33:57;;;;;;;;;;;;;;;-4.17;100.00;98096.09;110517;1240;69702;-60
2024/02/16 05:36:30;;;;;;;;;;;;;;;-4.16;100.00;98101.18;110456;1242;59827;-60
2024/02/16 05:39:09;;;;;;;;;;;;;;;-4.13;100.00;98103.55;110485;1241;59630;-60
2024/02/16 05:41:38;;;;;;;;;;;;;;;-4.10;100.00;98106.63;110539;1238;70987;-60
2024/02/16 05:44:09;;;;;;;;;;;;;;;-4.08;100.00;98102.17;110398;1241;70251;-60
2024/02/16 05:46:37;;;;;;;;;;;;;;;-4.02;100.00;98106.77;110513;1241;69803;-60
2024/02/16 05:49:06;;;;;;;;;;;;;;;-3.99;100.00;98104.70;110488;1240;59738;-60
2024/02/16 05:54:23;;;;;;;;;;;;;;;-3.90;100.00;98110.97;110400;1241;71362;-59
2024/02/16 05:56:52;;;;;;;;;;;;;;;-3.87;100.00;98114.02;110416;1238;69585;-61
2024/02/16 05:59:22;;;;;;;;;;;;;;;-3.83;100.00;98115.37;110492;1238;68805;-58
2024/02/16 06:01:51;;;;;;;;;;;;;;;-3.81;100.00;98114.68;110519;1241;59769;-60
2024/02/16 06:04:20;;;;;;;;;;;;;;;-3.76;100.00;98119.25;110403;1241;59679;-61
2024/02/16 06:06:49;;;;;;;;;;;;;;;-3.74;100.00;98118.39;110514;1241;71332;-60
2024/02/16 06:09:19;;;;;;;;;;;;;;;-3.69;100.00;98120.76;110386;1238;69254;-61
2024/02/16 06:11:48;;;;;;;;;;;;;;;-3.66;100.00;98119.54;110430;1240;69688;-60
2024/02/16 06:14:17;;;;;;;;;;;;;;;-3.58;100.00;98121.38;110407;1241;59737;-59
2024/02/16 06:16:47;;;;;;;;;;;;;;;-3.51;100.00;98123.90;109889;1247;716675;-59
2024/02/16 06:19:17;;;;;;;;;;;;;;;-3.39;100.00;98124.68;110376;1241;71183;-60
2024/02/16 06:21:46;;;;;;;;;;;;;;;-3.29;100.00;98127.18;110486;1240;69132;-59
2024/02/16 06:24:14;;;;;;;;;;;;;;;-3.22;100.00;98132.59;110407;1241;68737;-59
2024/02/16 06:26:43;;;;;;;;;;;;;;;-3.17;100.00;98132.21;110428;1240;59718;-60
2024/02/16 06:29:13;;;;;;;;;;;;;;;-3.11;100.00;98132.51;110529;1238;59627;-60
2024/02/16 06:31:42;;;;;;;;;;;;;;;-3.04;100.00;98131.44;110432;1241;71678;-60
2024/02/16 06:34:11;;;;;;;;;;;;;;;-2.95;100.00;98133.23;110530;1238;68699;-60
2024/02/16 06:36:40;;;;;;;;;;;;;;;-2.84;100.00;98132.65;110565;1238;69274;-60
2024/02/16 06:39:11;;;;;;;;;;;;;;;-2.72;100.00;98136.99;110558;1242;59690;-60
2024/02/16 06:41:39;;;;;;;;;;;;;;;-2.57;100.00;98137.20;110566;1238;59677;-60
2024/02/16 06:44:08;;;;;;;;;;;;;;;-2.36;100.00;98140.59;110553;1242;71960;-60
2024/02/16 06:46:37;;;;;;;;;;;;;;;-1.93;100.00;98142.19;110484;1238;67727;-60
2024/02/16 06:49:06;;;;;;;;;;;;;;;-1.34;100.00;98139.91;110576;1248;69070;-61
2024/02/16 06:51:36;;;;;;;;;;;;;;;-0.76;100.00;98133.41;110471;1242;59755;-61
2024/02/16 06:54:05;;;;;;;;;;;;;;;-0.27;100.00;98138.39;110566;1238;59662;-61
2024/02/16 06:56:35;;;;;;;;;;;;;;;0.31;100.00;98139.00;110564;1238;71344;-61
2024/02/16 06:59:04;;;;;;;;;;;;;;;0.94;100.00;98136.95;110547;1238;69698;-61
2024/02/16 07:01:32;;;;;;;;;;;;;;;1.59;100.00;98141.41;110456;1238;68832;-61
2024/02/16 07:04:01;;;;;;;;;;;;;;;2.17;100.00;98140.58;110433;1241;59725;-61
2024/02/16 07:06:30;;;;;;;;;;;;;;;2.61;100.00;98143.62;110547;1238;59658;-61
2024/02/16 07:08:59;;;;;;;;;;;;;;;3.09;100.00;98136.30;110418;1241;71926;-61
2024/02/16 07:11:28;;;;;;;;;;;;;;;3.45;100.00;98140.16;110441;1239;69705;-61
2024/02/16 07:13:59;;;;;;;;;;;;;;;3.77;100.00;98144.30;110408;1240;69790;-62
2024/02/16 07:16:28;;;;;;;;;;;;;;;3.71;99.40;98144.84;110386;1241;59697;-61
2024/02/16 07:18:57;;;;;;;;;;;;;;;3.97;98.30;98148.77;110490;1241;59661;-62
2024/02/16 07:21:26;;;;;;;;;;;;;;;4.22;97.72;98147.39;110430;1238;71792;-62
2024/02/16 07:23:55;;;;;;;;;;;;;;;4.59;97.75;98148.09;110459;1242;69046;-62
2024/02/16 07:26:24;;;;;;;;;;;;;;;5.29;98.98;98146.95;110477;1238;69828;-62
2024/02/16 07:28:53;;;;;;;;;;;;;;;5.65;92.98;98149.13;110373;1238;59728;-62
2024/02/16 07:31:21;;;;;;;;;;;;;;;5.70;89.47;98151.36;110386;1240;59740;-62
2024/02/16 07:33:50;;;;;;;;;;;;;;;6.16;88.98;98150.33;110386;1241;70205;-62
2024/02/16 07:36:19;;;;;;;;;;;;;;;6.70;91.40;98146.73;110455;1248;68219;-62
2024/02/16 07:38:48;;;;;;;;;;;;;;;7.19;86.54;98141.79;110354;1242;68248;-62
2024/02/16 07:41:16;;;;;;;;;;;;;;;7.33;82.44;98137.02;110371;1238;59750;-62
2024/02/16 07:43:45;;;;;;;;;;;;;;;7.49;77.79;98135.85;110362;1238;60055;-62
2024/02/16 07:46:14;;;;;;;;;;;;;;;7.62;76.33;98137.31;110450;1241;71970;-62
2024/02/16 07:48:43;;;;;;;;;;;;;;;8.21;80.73;98138.00;110490;1238;69228;-62
2024/02/16 07:51:12;;;;;;;;;;;;;;;8.54;76.27;98137.50;110359;1240;69830;-63
2024/02/16 07:53:44;;;;;;;;;;;;;;;8.73;75.76;98132.83;110388;1244;59698;-63
2024/02/16 07:56:12;;;;;;;;;;;;;;;8.62;69.10;98133.42;110376;1241;59663;-60
2024/02/16 07:58:45;;;;;;;;;;;;;;;8.22;69.74;98140.16;110371;1240;71973;-61
2024/02/16 08:01:15;;;;;;;;;;;;;;;8.45;71.97;98140.20;110408;1247;69711;-61
2024/02/16 08:03:44;;;;;;;;;;;;;;;8.78;71.29;98140.73;110411;1241;69675;-61
2024/02/16 08:06:12;;;;;;;;;;;;;;;9.19;69.09;98137.80;110376;1241;59703;-61
2024/02/16 08:08:41;;;;;;;;;;;;;;;9.06;69.42;98135.04;110401;1238;59666;-61
2024/02/16 08:11:10;;;;;;;;;;;;;;;9.60;69.06;98136.52;110487;1241;71298;-61
2024/02/16 08:13:40;;;;;;;;;;;;;;;10.20;67.82;98139.45;110421;1238;69261;-61
2024/02/16 08:16:08;;;;;;;;;;;;;;;10.13;64.69;98139.50;110360;1238;68129;-61
2024/02/16 08:18:37;;;;;;;;;;;;;;;10.68;65.14;98140.20;110365;1240;59753;-61
2024/02/16 08:21:06;;;;;;;;;;;;;;;10.99;62.65;98131.34;110371;1241;59721;-61
2024/02/16 08:23:35;;;;;;;;;;;;;;;10.89;60.74;98130.20;110493;1241;71264;-61
2024/02/16 08:26:04;;;;;;;;;;;;;;;10.98;60.67;98132.91;110384;1238;69238;-62
2024/02/16 08:28:32;;;;;;;;;;;;;;;10.74;61.82;98134.12;110356;1241;69290;-62
2024/02/16 08:31:01;;;;;;;;;;;;;;;11.16;58.57;98131.45;110428;1245;59741;-61
2024/02/16 08:33:30;;;;;;;;;;;;;;;11.71;58.48;98128.80;110368;1242;59698;-62
2024/02/16 08:35:58;;;;;;;;;;;;;;;12.34;57.02;98127.20;110385;1248;71987;-62
2024/02/16 08:38:27;;;;;;;;;;;;;;;12.60;55.20;98128.17;110431;1241;69840;-62
2024/02/16 08:40:56;;;;;;;;;;;;;;;12.82;53.20;98129.77;110364;1241;69255;-61
2024/02/16 08:43:25;;;;;;;;;;;;;;;12.50;52.15;98126.61;110434;1247;59706;-61
2024/02/16 08:45:54;;;;;;;;;;;;;;;13.00;52.83;98125.65;110392;1238;59714;-62
2024/02/16 08:48:24;;;;;;;;;;;;;;;13.45;48.39;98124.57;110554;1241;71452;-61
2024/02/16 08:50:53;;;;;;;;;;;;;;;13.28;49.89;98125.95;110462;1242;69822;-62
2024/02/16 08:53:22;;;;;;;;;;;;;;;13.41;47.92;98122.27;110418;1241;69057;-62
2024/02/16 08:55:51;;;;;;;;;;;;;;;13.25;49.09;98118.15;110372;1238;59689;-61
2024/02/16 08:58:19;;;;;;;;;;;;;;;13.46;48.04;98121.86;110443;1240;59734;-60
2024/02/16 09:00:49;;;;;;;;;;;;;;;13.92;47.17;98118.29;110407;1241;70228;-61
2024/02/16 09:03:18;;;;;;;;;;;;;;;14.81;48.30;98117.20;110441;1241;69207;-60
2024/02/16 09:05:47;;;;;;;;;;;;;;;15.59;47.11;98119.04;110328;1241;69246;-61
2024/02/16 09:08:16;;;;;;;;;;;;;;;16.04;43.34;98112.92;110364;1242;60114;-62
2024/02/16 09:10:45;;;;;;;;;;;;;;;15.85;43.88;98119.23;110396;1238;59746;-61
2024/02/16 09:13:14;;;;;;;;;;;;;;;15.36;42.81;98115.99;110460;1238;71923;-61
2024/02/16 09:15:43;;;;;;;;;;;;;;;15.05;43.07;98117.09;110405;1242;69205;-61
2024/02/16 09:18:11;;;;;;;;;;;;;;;15.74;43.45;98116.44;110378;1238;68865;-61
2024/02/16 09:20:40;;;;;;;;;;;;;;;15.61;42.34;98118.05;110385;1241;59659;-62
2024/02/16 09:23:10;;;;;;;;;;;;;;;15.56;41.50;98111.58;110376;1241;59678;-61
2024/02/16 09:25:40;;;;;;;;;;;;;;;15.34;41.88;98111.25;110392;1242;70983;-62
2024/02/16 09:28:09;;;;;;;;;;;;;;;15.11;42.23;98112.92;110354;1238;69504;-61
2024/02/16 09:30:48;;;;;;;;;;;;;;;15.64;41.98;98112.52;110366;1242;70301;-61
2024/02/16 09:33:16;;;;;;;;;;;;;;;16.26;42.95;98112.59;110562;1245;59729;-61
2024/02/16 09:35:46;;;;;;;;;;;;;;;17.15;40.95;98111.28;110419;1242;59675;-62
2024/02/16 09:38:14;;;;;;;;;;;;;;;16.39;39.51;98106.77;110465;1241;72017;-61
2024/02/16 09:40:44;;;;;;;;;;;;;;;17.28;39.95;98109.52;110585;1241;69263;-62
2024/02/16 09:43:42;;;;;;;;;;;;;;;17.81;39.26;98106.77;110363;1241;69843;-61
2024/02/16 09:46:10;;;;;;;;;;;;;;;17.42;38.31;98102.98;110244;1243;59737;-61
2024/02/16 09:48:41;;;;;;;;;;;;;;;18.23;38.03;98107.58;110428;1249;59630;-61
2024/02/16 09:51:10;;;;;;;;;;;;;;;18.44;37.86;98104.45;110434;1241;71943;-61
2024/02/16 09:53:39;;;;;;;;;;;;;;;17.90;36.67;98097.98;110464;1248;69838;-61
2024/02/16 09:56:08;;;;;;;;;;;;;;;18.25;37.60;98096.88;110384;1241;69263;-61
2024/02/16 09:58:37;;;;;;;;;;;;;;;18.50;36.54;98092.91;110375;1238;59808;-61
2024/02/16 10:01:06;;;;;;;;;;;;;;;18.06;36.21;98092.27;110460;1238;59682;-60
2024/02/16 10:03:34;;;;;;;;;;;;;;;17.82;36.87;98092.17;110411;1243;71008;-60
2024/02/16 10:06:05;;;;;;;;;;;;;;;19.05;37.46;98088.20;110402;1238;68711;-59
2024/02/16 10:08:35;;;;;;;;;;;;;;;19.33;35.84;98085.52;110390;1242;69700;-60
2024/02/16 10:11:04;;;;;;;;;;;;;;;18.99;35.11;98084.16;110459;1240;59730;-62
2024/02/16 10:13:33;;;;;;;;;;;;;;;18.76;35.28;98085.30;110581;1241;59598;-61
2024/02/16 10:16:09;;;;;;;;;;;;;;;18.68;34.66;98080.61;110443;1242;71339;-61
2024/02/16 10:18:38;;;;;;;;;;;;;;;18.05;35.96;98079.64;110368;1238;69165;-62
2024/02/16 10:21:08;;;;;;;;;;;;;;;17.45;36.10;98072.82;110389;1238;69432;-62
2024/02/16 10:23:37;;;;;;;;;;;;;;;17.70;36.18;98070.84;110369;1242;59747;-61
2024/02/16 10:26:09;;;;;;;;;;;;;;;18.95;34.56;98066.02;110461;1242;60147;-60
2024/02/16 10:28:38;;;;;;;;;;;;;;;18.55;34.60;98068.55;110471;1241;72069;-61
2024/02/16 10:31:07;;;;;;;;;;;;;;;18.71;34.33;98062.19;110427;1238;68484;-61
2024/02/16 10:33:36;;;;;;;;;;;;;;;18.67;34.01;98058.05;110405;1242;69850;-61
2024/02/16 10:36:07;;;;;;;;;;;;;;;18.80;34.55;98054.55;110439;1242;59643;-62
2024/02/16 10:38:37;;;;;;;;;;;;;;;19.67;33.07;98053.14;110494;1240;59663;-61
2024/02/16 10:41:06;;;;;;;;;;;;;;;18.51;33.98;98046.27;110440;1240;71838;-60
2024/02/16 10:43:35;;;;;;;;;;;;;;;18.63;33.61;98046.87;110228;1242;69738;-60
2024/02/16 10:46:04;;;;;;;;;;;;;;;19.44;32.91;98037.33;110418;1241;69311;-61
2024/02/16 10:48:34;;;;;;;;;;;;;;;19.58;33.12;98033.55;110609;1242;59758;-61
2024/02/16 10:51:03;;;;;;;;;;;;;;;19.39;33.27;98029.90;110522;1242;59653;-60
2024/02/16 10:53:32;;;;;;;;;;;;;;;19.74;33.16;98029.30;110486;1238;71457;-61
2024/02/16 10:56:01;;;;;;;;;;;;;;;20.15;31.81;98027.36;110382;1238;69193;-61
2024/02/16 10:58:31;;;;;;;;;;;;;;;20.16;31.72;98026.13;110392;1242;70236;-61
2024/02/16 11:01:07;;;;;;;;;;;;;;;20.42;31.46;98023.63;110400;1242;59744;-61
2024/02/16 11:03:37;;;;;;;;;;;;;;;20.25;30.83;98016.32;110477;1240;59670;-61
2024/02/16 11:06:19;;;;;;;;;;;;;;;20.19;31.26;98017.61;110445;1242;71939;-61
2024/02/16 11:08:49;;;;;;;;;;;;;;;20.55;31.27;98013.89;110378;1238;69841;-61
2024/02/16 11:11:24;;;;;;;;;;;;;;;20.86;29.80;98013.51;110442;1241;69774;-61
2024/02/16 11:13:54;;;;;;;;;;;;;;;19.68;30.64;98014.45;110441;1242;59698;-61
2024/02/16 11:16:24;;;;;;;;;;;;;;;19.04;31.91;98013.70;110412;1242;59678;-63
2024/02/16 11:18:56;;;;;;;;;;;;;;;19.44;31.57;98017.59;110406;1240;71378;-63
2024/02/16 11:21:25;;;;;;;;;;;;;;;19.35;32.37;98014.06;110561;1241;68221;-62
2024/02/16 11:24:03;;;;;;;;;;;;;;;19.99;31.75;98010.89;110447;1240;69674;-63
2024/02/16 11:26:41;;;;;;;;;;;;;;;20.64;31.34;98008.04;110448;1238;59730;-62
2024/02/16 11:29:10;;;;;;;;;;;;;;;20.55;30.02;98002.73;110432;1240;59750;-62
2024/02/16 11:31:39;;;;;;;;;;;;;;;20.05;31.00;98004.20;110389;1242;71914;-61
2024/02/16 11:34:08;;;;;;;;;;;;;;;19.13;31.99;98001.57;110390;1242;69670;-61
2024/02/16 11:36:37;;;;;;;;;;;;;;;20.46;31.07;97996.39;110234;1242;68814;-63
2024/02/16 11:39:12;;;;;;;;;;;;;;;20.83;30.13;97993.31;110503;1238;59700;-60
2024/02/16 11:41:40;;;;;;;;;;;;;;;20.90;30.50;97994.42;110367;1242;59717;-61
2024/02/16 11:44:09;;;;;;;;;;;;;;;21.13;29.69;97994.55;110586;1241;71628;-63
2024/02/16 11:46:38;;;;;;;;;;;;;;;20.05;30.67;97995.91;110460;1241;69088;-61
2024/02/16 11:49:07;;;;;;;;;;;;;;;19.40;31.68;97990.05;110425;1240;69886;-61
2024/02/16 11:51:37;;;;;;;;;;;;;;;19.53;30.96;97986.99;110491;1242;59691;-61
2024/02/16 11:54:06;;;;;;;;;;;;;;;18.61;32.20;97985.23;110618;1240;59724;-61
2024/02/16 11:56:34;;;;;;;;;;;;;;;18.94;31.99;97985.52;110551;1240;71419;-61
2024/02/16 11:59:03;;;;;;;;;;;;;;;19.37;31.15;97979.19;110512;1241;69849;-62
2024/02/16 12:01:34;;;;;;;;;;;;;;;20.01;31.46;97978.22;110381;1242;69261;-62
2024/02/16 12:04:03;;;;;;;;;;;;;;;20.91;30.69;97977.44;110463;1241;59738;-62
2024/02/16 12:06:31;;;;;;;;;;;;;;;21.27;30.56;97976.73;110438;1241;59678;-61
2024/02/16 12:09:00;;;;;;;;;;;;;;;21.81;29.75;97978.45;110388;1240;71327;-61
2024/02/16 12:11:29;;;;;;;;;;;;;;;22.17;29.37;97974.86;110471;1241;69866;-62
2024/02/16 12:14:00;;;;;;;;;;;;;;;21.90;29.17;97975.03;110457;1240;68798;-62
2024/02/16 12:16:29;;;;;;;;;;;;;;;21.53;28.53;97974.77;110401;1242;59697;-62
2024/02/16 12:19:08;;;;;;;;;;;;;;;21.33;29.01;97973.73;110448;1240;59673;-63
2024/02/16 12:21:38;;;;;;;;;;;;;;;22.10;29.37;97968.17;110598;1238;71781;-62
2024/02/16 12:24:07;;;;;;;;;;;;;;;22.68;28.21;97963.97;110304;1242;68731;-61
2024/02/16 12:26:36;;;;;;;;;;;;;;;22.43;28.22;97960.59;110384;1238;70054;-61
2024/02/16 12:29:05;;;;;;;;;;;;;;;22.77;27.65;97959.20;110395;1242;59734;-61
2024/02/16 12:31:37;;;;;;;;;;;;;;;23.04;27.39;97957.39;110451;1243;59728;-62
2024/02/16 12:34:07;;;;;;;;;;;;;;;22.95;27.28;97959.80;110569;1242;72145;-61
2024/02/16 12:36:38;;;;;;;;;;;;;;;22.99;27.56;97960.55;110397;1241;69029;-61
2024/02/16 12:39:08;;;;;;;;;;;;;;;23.58;26.66;97959.70;110490;1240;70319;-62
2024/02/16 12:41:38;;;;;;;;;;;;;;;24.05;26.84;97960.40;110393;1241;59749;-62
2024/02/16 12:44:07;;;;;;;;;;;;;;;23.31;26.57;97958.15;110448;1242;59692;-61
2024/02/16 12:46:35;;;;;;;;;;;;;;;23.21;26.53;97955.02;110407;1238;71693;-61